Akita, Japan
Current Conditions -  °F | °C
As of 7:00 PM on Monday 26 Jan 2015 (Local Time) from RJSK Reporting Station
Broken Clouds Broken Clouds  
Wind Chill: 34°   Ceiling: 5000
Heat Index: 39°   Visibility: 6mi
Dew Point: 30°   Wind: 7mph
Humidity: 70%   Direction: 140°SE
Pressure: 30.06"   Gusts: NA
Location:  39.71°N, 140.11°E
Report Text: RJSK 261000Z 14006KT 9999 FEW030 BKN050 BKN070 04/M01 Q1018
Loading
Personal Weather Stations






























Interactive Weather Map New forecast layout! Learn more

10-Day Weather Forecast

Advertisements
Track Severe Weather on mobile